createdAt,value
2023-02-11T00:01:47.823Z,96678.06
2023-02-11T00:04:14.595Z,96673.00
2023-02-11T00:06:41.350Z,96679.84
2023-02-11T00:09:09.272Z,96676.47
2023-02-11T00:11:36.382Z,96675.59
2023-02-11T00:14:04.118Z,96677.25
2023-02-11T00:16:31.517Z,96677.19
2023-02-11T00:19:00.855Z,96671.94
2023-02-11T00:21:27.610Z,96667.09
2023-02-11T00:23:54.257Z,96673.22
2023-02-11T00:26:20.997Z,96668.06
2023-02-11T00:28:47.359Z,96663.81
2023-02-11T00:31:13.847Z,96672.59
2023-02-11T00:33:40.318Z,96666.59
2023-02-11T00:36:06.713Z,96664.25
2023-02-11T00:38:33.129Z,96659.22
2023-02-11T00:40:59.471Z,96658.44
2023-02-11T00:43:25.864Z,96661.09
2023-02-11T00:45:55.082Z,96660.22
2023-02-11T00:48:21.451Z,96654.13
2023-02-11T00:50:50.175Z,96655.84
2023-02-11T00:53:16.777Z,96650.75
2023-02-11T00:55:45.833Z,96647.38
2023-02-11T00:58:12.436Z,96644.06
2023-02-11T01:00:39.445Z,96639.00
2023-02-11T01:03:05.911Z,96635.63
2023-02-11T01:05:32.377Z,96647.81
2023-02-11T01:07:58.842Z,96637.47
2023-02-11T01:10:25.211Z,96640.28
2023-02-11T01:12:51.680Z,96638.59
2023-02-11T01:15:18.079Z,96640.38
2023-02-11T01:17:44.805Z,96640.31
2023-02-11T01:20:11.210Z,96628.34
2023-02-11T01:22:37.619Z,96635.38
2023-02-11T01:25:06.012Z,96626.94
2023-02-11T01:27:32.395Z,96629.56
2023-02-11T01:29:58.915Z,96623.72
2023-02-11T01:32:25.737Z,96624.59
2023-02-11T01:34:52.131Z,96633.94
2023-02-11T01:37:18.735Z,96639.91
2023-02-11T01:39:45.110Z,96642.47
2023-02-11T01:42:13.692Z,96642.56
2023-02-11T01:44:41.076Z,96635.78
2023-02-11T01:47:07.439Z,96636.53
2023-02-11T01:49:33.841Z,96631.25
2023-02-11T01:52:02.146Z,96633.13
2023-02-11T01:54:28.537Z,96638.03
2023-02-11T01:56:55.302Z,96631.00
2023-02-11T01:59:21.694Z,96629.13
2023-02-11T02:01:48.127Z,96624.75
2023-02-11T02:04:14.488Z,96620.38
2023-02-11T02:06:41.425Z,96607.50
2023-02-11T02:09:07.883Z,96601.38
2023-02-11T02:11:34.268Z,96595.41
2023-02-11T02:14:00.669Z,96599.66
2023-02-11T02:16:29.471Z,96596.28
2023-02-11T02:18:57.880Z,96591.19
2023-02-11T02:21:25.838Z,96596.56
2023-02-11T02:23:56.549Z,96598.44
2023-02-11T02:26:23.117Z,96591.69
2023-02-11T02:28:49.500Z,96588.53
2023-02-11T02:31:15.881Z,96588.59
2023-02-11T02:33:42.281Z,96586.94
2023-02-11T02:36:08.664Z,96592.31
2023-02-11T02:38:35.064Z,96589.03
2023-02-11T02:41:01.470Z,96591.75
2023-02-11T02:43:28.074Z,96588.44
2023-02-11T02:45:55.663Z,96586.72
2023-02-11T02:48:22.230Z,96581.50
2023-02-11T02:50:48.661Z,96572.91
2023-02-11T02:53:18.089Z,96573.22
2023-02-11T02:55:45.123Z,96572.47
2023-02-11T02:58:14.300Z,96567.53
2023-02-11T03:00:43.804Z,96570.00
2023-02-11T03:03:10.317Z,96573.38
2023-02-11T03:05:36.700Z,96565.59
2023-02-11T03:08:03.119Z,96563.09
2023-02-11T03:10:30.501Z,96568.19
2023-02-11T03:12:56.980Z,96568.19
2023-02-11T03:15:23.355Z,96557.84
2023-02-11T03:17:49.736Z,96560.34
2023-02-11T03:20:16.137Z,96546.53
2023-02-11T03:22:42.853Z,96555.91
2023-02-11T03:25:09.601Z,96549.06
2023-02-11T03:27:36.016Z,96554.13
2023-02-11T03:30:02.411Z,96543.94
2023-02-11T03:32:28.762Z,96553.34
2023-02-11T03:34:55.408Z,96542.31
2023-02-11T03:37:21.770Z,96536.31
2023-02-11T03:39:48.283Z,96537.16
2023-02-11T03:42:15.679Z,96537.81
2023-02-11T03:44:42.103Z,96537.88
2023-02-11T03:47:09.205Z,96535.50
2023-02-11T03:49:35.579Z,96529.63
2023-02-11T03:52:01.922Z,96530.44
2023-02-11T03:54:28.325Z,96528.66
2023-02-11T03:56:54.666Z,96528.56
2023-02-11T03:59:21.043Z,96524.25
2023-02-11T04:01:49.486Z,96524.25
2023-02-11T04:04:15.916Z,96523.44
2023-02-11T04:06:42.380Z,96521.66
2023-02-11T04:09:08.772Z,96524.25
2023-02-11T04:11:35.387Z,96529.56
2023-02-11T04:14:02.201Z,96527.06
2023-02-11T04:16:28.668Z,96537.50
2023-02-11T04:18:55.095Z,96541.84
2023-02-11T04:21:26.242Z,96541.97
2023-02-11T04:23:53.074Z,96546.56
2023-02-11T04:26:19.522Z,96547.47
2023-02-11T04:28:46.255Z,96552.63
2023-02-11T04:31:14.692Z,96553.53
2023-02-11T04:33:42.108Z,96556.09
2023-02-11T04:36:08.737Z,96547.78
2023-02-11T04:38:35.837Z,96550.41
2023-02-11T04:41:02.195Z,96557.34
2023-02-11T04:43:28.599Z,96546.00
2023-02-11T04:45:55.205Z,96551.06
2023-02-11T04:48:21.728Z,96549.16
2023-02-11T04:50:48.122Z,96534.50
2023-02-11T04:53:15.539Z,96530.91
2023-02-11T04:55:42.077Z,96524.75
2023-02-11T04:58:08.547Z,96513.41
2023-02-11T05:00:34.949Z,96515.84
2023-02-11T05:03:01.568Z,96517.72
2023-02-11T05:05:28.209Z,96510.97
2023-02-11T05:07:54.923Z,96509.31
2023-02-11T05:10:21.302Z,96503.63
2023-02-11T05:12:49.862Z,96509.72
2023-02-11T05:15:19.813Z,96512.44
2023-02-11T05:17:46.278Z,96511.47
2023-02-11T05:20:12.671Z,96497.81
2023-02-11T05:22:39.104Z,96501.44
2023-02-11T05:25:05.820Z,96499.81
2023-02-11T05:27:32.328Z,96495.56
2023-02-11T05:29:58.854Z,96498.06
2023-02-11T05:32:25.278Z,96494.69
2023-02-11T05:34:51.922Z,96491.38
2023-02-11T05:37:18.354Z,96493.19
2023-02-11T05:39:44.740Z,96498.22
2023-02-11T05:42:11.116Z,96512.13
2023-02-11T05:44:37.986Z,96521.59
2023-02-11T05:47:05.053Z,96501.91
2023-02-11T05:49:31.528Z,96498.34
2023-02-11T05:51:57.919Z,96491.53
2023-02-11T05:54:24.304Z,96508.41
2023-02-11T05:56:50.809Z,96501.81
2023-02-11T05:59:17.159Z,96504.31
2023-02-11T06:01:43.501Z,96511.06
2023-02-11T06:04:09.912Z,96510.06
2023-02-11T06:06:36.468Z,96509.16
2023-02-11T06:09:02.901Z,96500.53
2023-02-11T06:11:29.324Z,96503.91
2023-02-11T06:13:55.682Z,96502.84
2023-02-11T06:16:22.155Z,96495.00
2023-02-11T06:18:48.566Z,96503.31
2023-02-11T06:21:15.269Z,96504.88
2023-02-11T06:23:41.649Z,96513.66
2023-02-11T06:26:08.044Z,96520.00
2023-02-11T06:28:36.610Z,96513.25
2023-02-11T06:31:03.110Z,96520.19
2023-02-11T06:33:29.782Z,96514.13
2023-02-11T06:35:56.460Z,96521.06
2023-02-11T06:38:22.836Z,96518.59
2023-02-11T06:40:49.174Z,96529.00
2023-02-11T06:43:16.571Z,96529.81
2023-02-11T06:45:42.929Z,96532.44
2023-02-11T06:48:09.323Z,96524.66
2023-02-11T06:50:36.145Z,96534.13
2023-02-11T06:53:02.479Z,96536.75
2023-02-11T06:55:28.826Z,96532.38
2023-02-11T06:57:55.227Z,96557.28
2023-02-11T07:00:21.605Z,96553.19
2023-02-11T07:02:48.104Z,96551.31
2023-02-11T07:05:14.629Z,96552.06
2023-02-11T07:07:41.012Z,96559.53
2023-02-11T07:10:09.226Z,96562.97
2023-02-11T07:12:43.165Z,96569.06
2023-02-11T07:15:09.903Z,96579.47
2023-02-11T07:17:37.397Z,96580.19
2023-02-11T07:20:04.698Z,96575.69
2023-02-11T07:22:31.160Z,96568.66
2023-02-11T07:24:57.640Z,96566.81
2023-02-11T07:27:24.018Z,96564.09
2023-02-11T07:29:50.433Z,96558.75
2023-02-11T07:32:16.939Z,96549.16
2023-02-11T07:34:43.445Z,96545.53
2023-02-11T07:37:10.293Z,96541.97
2023-02-11T07:39:38.889Z,96543.56
2023-02-11T07:42:05.282Z,96540.16
2023-02-11T07:44:31.638Z,96546.13
2023-02-11T07:46:58.048Z,96547.78
2023-02-11T07:49:24.457Z,96550.22
2023-02-11T07:51:50.799Z,96538.09
2023-02-11T07:54:17.178Z,96545.63
2023-02-11T07:56:43.540Z,96541.25
2023-02-11T07:59:12.326Z,96547.66
2023-02-11T08:01:38.696Z,96556.22
2023-02-11T08:04:05.202Z,96559.59
2023-02-11T08:06:31.900Z,96561.31
2023-02-11T08:09:00.347Z,96570.69
2023-02-11T08:11:26.704Z,96571.31
2023-02-11T08:13:53.102Z,96572.44
2023-02-11T08:16:19.508Z,96572.00
2023-02-11T08:18:45.977Z,96574.59
2023-02-11T08:21:13.786Z,96571.84
2023-02-11T08:23:40.161Z,96576.69
2023-02-11T08:26:07.393Z,96583.81
2023-02-11T08:28:33.848Z,96584.28
2023-02-11T08:31:02.338Z,96597.00
2023-02-11T08:33:28.739Z,96603.28
2023-02-11T08:35:55.506Z,96603.91
2023-02-11T08:38:23.204Z,96600.91
2023-02-11T08:40:49.879Z,96601.41
2023-02-11T08:43:16.429Z,96608.63
2023-02-11T08:45:42.835Z,96603.59
2023-02-11T08:48:10.627Z,96610.56
2023-02-11T08:50:37.310Z,96590.03
2023-02-11T08:53:03.657Z,96589.41
2023-02-11T08:55:31.059Z,96580.84
2023-02-11T08:57:57.898Z,96592.25
2023-02-11T09:00:24.320Z,96595.03
2023-02-11T09:02:50.725Z,96598.56
2023-02-11T09:05:19.230Z,96603.28
2023-02-11T09:07:45.627Z,96613.22
2023-02-11T09:10:12.244Z,96606.53
2023-02-11T09:12:38.635Z,96595.47
2023-02-11T09:15:05.028Z,96592.91
2023-02-11T09:17:31.384Z,96605.59
2023-02-11T09:19:58.997Z,96611.09
2023-02-11T09:22:25.330Z,96603.78
2023-02-11T09:24:51.713Z,96601.81
2023-02-11T09:27:20.400Z,96605.19
2023-02-11T09:29:46.762Z,96602.22
2023-02-11T09:32:14.225Z,96591.03
2023-02-11T09:34:40.708Z,96596.53
2023-02-11T09:37:07.099Z,96606.31
2023-02-11T09:39:33.501Z,96596.91
2023-02-11T09:42:00.023Z,96606.38
2023-02-11T09:44:26.544Z,96600.19
2023-02-11T09:46:52.934Z,96602.66
2023-02-11T09:49:19.330Z,96593.22
2023-02-11T09:51:45.695Z,96590.91
2023-02-11T09:54:12.334Z,96579.16
2023-02-11T09:56:38.717Z,96579.34
2023-02-11T09:59:05.071Z,96572.91
2023-02-11T10:01:31.868Z,96568.75
2023-02-11T10:03:58.285Z,96574.16
2023-02-11T10:06:25.724Z,96572.16
2023-02-11T10:08:52.112Z,96566.66
2023-02-11T10:11:31.200Z,96555.97
2023-02-11T10:14:03.307Z,96553.75
2023-02-11T10:16:29.648Z,96549.91
2023-02-11T10:18:55.995Z,96544.59
2023-02-11T10:21:22.354Z,96547.28
2023-02-11T10:23:48.749Z,96537.69
2023-02-11T10:26:17.882Z,96542.91
2023-02-11T10:28:45.049Z,96541.78
2023-02-11T10:31:15.913Z,96542.63
2023-02-11T10:33:43.203Z,96543.13
2023-02-11T10:36:09.598Z,96541.31
2023-02-11T10:38:35.954Z,96539.19
2023-02-11T10:41:02.308Z,96542.44
2023-02-11T10:43:28.961Z,96542.41
2023-02-11T10:45:55.354Z,96536.03
2023-02-11T10:48:21.835Z,96535.84
2023-02-11T10:50:50.784Z,96535.28
2023-02-11T10:53:22.921Z,96538.34
2023-02-11T10:55:49.322Z,96545.50
2023-02-11T10:58:15.741Z,96540.91
2023-02-11T11:00:42.125Z,96540.38
2023-02-11T11:03:08.488Z,96538.63
2023-02-11T11:05:34.863Z,96535.78
2023-02-11T11:08:01.261Z,96530.13
2023-02-11T11:10:27.667Z,96526.13
2023-02-11T11:12:54.291Z,96525.50
2023-02-11T11:15:20.654Z,96519.59
2023-02-11T11:17:47.049Z,96519.91
2023-02-11T11:20:13.447Z,96519.50
2023-02-11T11:22:39.805Z,96518.44
2023-02-11T11:25:13.336Z,96521.28
2023-02-11T11:27:39.775Z,96521.28
2023-02-11T11:30:06.168Z,96517.19
2023-02-11T11:32:32.677Z,96513.19
2023-02-11T11:35:01.897Z,96506.03
2023-02-11T11:37:28.353Z,96508.66
2023-02-11T11:39:54.820Z,96497.28
2023-02-11T11:42:21.207Z,96495.53
2023-02-11T11:44:48.242Z,96485.69
2023-02-11T11:47:14.659Z,96488.50
2023-02-11T11:49:41.046Z,96478.75
2023-02-11T11:52:09.143Z,96484.41
2023-02-11T11:54:35.712Z,96483.38
2023-02-11T11:57:06.382Z,96488.50
2023-02-11T11:59:32.739Z,96483.03
2023-02-11T12:02:00.235Z,96489.00
2023-02-11T12:04:26.685Z,96483.56
2023-02-11T12:06:53.044Z,96484.59
2023-02-11T12:09:19.413Z,96482.50
2023-02-11T12:11:46.831Z,96477.16
2023-02-11T12:14:13.241Z,96474.78
2023-02-11T12:16:39.632Z,96471.38
2023-02-11T12:19:06.041Z,96459.09
2023-02-11T12:21:43.700Z,96455.31
2023-02-11T12:24:22.755Z,96451.22
2023-02-11T12:26:49.140Z,96454.09
2023-02-11T12:29:15.536Z,96453.06
2023-02-11T12:31:41.963Z,96451.03
2023-02-11T12:34:09.281Z,96445.50
2023-02-11T12:36:35.680Z,96431.66
2023-02-11T12:39:02.254Z,96431.78
2023-02-11T12:41:29.838Z,96433.94
2023-02-11T12:43:56.258Z,96429.84
2023-02-11T12:46:26.707Z,96429.84
2023-02-11T12:48:55.711Z,96426.13
2023-02-11T12:51:22.098Z,96418.03
2023-02-11T12:53:48.439Z,96427.47
2023-02-11T12:56:15.136Z,96420.53
2023-02-11T12:58:45.699Z,96431.75
2023-02-11T13:01:12.365Z,96417.63
2023-02-11T13:03:38.753Z,96425.66
2023-02-11T13:06:05.311Z,96419.19
2023-02-11T13:08:31.719Z,96419.69
2023-02-11T13:10:58.190Z,96419.19
2023-02-11T13:16:05.258Z,96409.81
2023-02-11T13:18:31.876Z,96408.13
2023-02-11T13:20:58.535Z,96405.94
2023-02-11T13:23:24.901Z,96407.94
2023-02-11T13:25:51.330Z,96396.78
2023-02-11T13:28:18.009Z,96401.78
2023-02-11T13:30:44.723Z,96395.53
2023-02-11T13:33:11.394Z,96396.25
2023-02-11T13:35:37.780Z,96394.84
2023-02-11T13:38:04.349Z,96395.31
2023-02-11T13:40:36.731Z,96398.88
2023-02-11T13:43:03.196Z,96400.56
2023-02-11T13:45:29.539Z,96399.03
2023-02-11T13:47:55.929Z,96401.28
2023-02-11T13:50:22.406Z,96396.72
2023-02-11T13:52:48.958Z,96400.78
2023-02-11T13:55:15.440Z,96396.31
2023-02-11T13:57:42.510Z,96396.22
2023-02-11T14:00:09.188Z,96394.28
2023-02-11T14:02:36.321Z,96386.38
2023-02-11T14:05:02.801Z,96388.25
2023-02-11T14:07:29.169Z,96399.31
2023-02-11T14:09:55.657Z,96384.25
2023-02-11T14:12:24.284Z,96392.91
2023-02-11T14:14:51.029Z,96379.72
2023-02-11T14:17:17.478Z,96373.81
2023-02-11T14:19:45.176Z,96380.63
2023-02-11T14:22:11.547Z,96375.69
2023-02-11T14:24:38.249Z,96368.78
2023-02-11T14:27:04.816Z,96374.63
2023-02-11T14:29:31.328Z,96368.81
2023-02-11T14:31:57.791Z,96366.16
2023-02-11T14:34:26.672Z,96354.94
2023-02-11T14:36:53.723Z,96352.56
2023-02-11T14:39:20.209Z,96353.16
2023-02-11T14:41:46.802Z,96340.63
2023-02-11T14:44:13.273Z,96347.88
2023-02-11T14:46:39.693Z,96345.81
2023-02-11T14:49:06.424Z,96342.06
2023-02-11T14:51:32.924Z,96338.47
2023-02-11T14:53:59.361Z,96342.75
2023-02-11T14:56:25.877Z,96342.75
2023-02-11T14:58:52.460Z,96340.81
2023-02-11T15:01:18.846Z,96338.06
2023-02-11T15:03:45.599Z,96338.88
2023-02-11T15:06:14.726Z,96336.13
2023-02-11T15:08:41.732Z,96332.22
2023-02-11T15:11:08.079Z,96337.06
2023-02-11T15:13:34.683Z,96345.28
2023-02-11T15:16:01.119Z,96347.78
2023-02-11T15:18:27.501Z,96346.28
2023-02-11T15:20:54.081Z,96341.94
2023-02-11T15:23:20.576Z,96335.16
2023-02-11T15:25:46.920Z,96331.94
2023-02-11T15:28:13.326Z,96334.47
2023-02-11T15:30:39.693Z,96328.19
2023-02-11T15:33:06.113Z,96338.06
2023-02-11T15:35:32.464Z,96343.59
2023-02-11T15:37:58.807Z,96333.63
2023-02-11T15:40:25.149Z,96336.97
2023-02-11T15:42:53.577Z,96343.59
2023-02-11T15:45:20.558Z,96343.59
2023-02-11T15:47:46.891Z,96341.63
2023-02-11T15:50:13.227Z,96343.88
2023-02-11T15:52:39.598Z,96353.50
2023-02-11T15:55:05.946Z,96362.13
2023-02-11T15:57:32.304Z,96354.09
2023-02-11T15:59:58.712Z,96365.34
2023-02-11T16:02:25.106Z,96362.44
2023-02-11T16:04:51.470Z,96363.53
2023-02-11T16:07:17.853Z,96364.19
2023-02-11T16:09:44.239Z,96364.72
2023-02-11T16:12:10.633Z,96370.63
2023-02-11T16:14:37.034Z,96371.78
2023-02-11T16:17:04.372Z,96379.94
2023-02-11T16:19:30.708Z,96374.22
2023-02-11T16:21:57.051Z,96375.19
2023-02-11T16:24:26.615Z,96372.63
2023-02-11T16:26:56.300Z,96372.22
2023-02-11T16:29:25.852Z,96372.53
2023-02-11T16:31:52.352Z,96382.44
2023-02-11T16:34:18.808Z,96371.03
2023-02-11T16:36:45.386Z,96375.16
2023-02-11T16:39:11.725Z,96379.00
2023-02-11T16:41:38.355Z,96380.25
2023-02-11T16:44:04.725Z,96380.13
2023-02-11T16:46:31.166Z,96384.31
2023-02-11T16:48:57.682Z,96381.22
2023-02-11T16:51:24.269Z,96384.66
2023-02-11T16:53:51.654Z,96390.38
2023-02-11T16:56:18.072Z,96393.34
2023-02-11T16:58:44.638Z,96394.97
2023-02-11T17:01:13.522Z,96390.50
2023-02-11T17:03:41.651Z,96383.53
2023-02-11T17:06:08.022Z,96386.34
2023-02-11T17:08:36.879Z,96391.50
2023-02-11T17:11:03.263Z,96392.19
2023-02-11T17:13:29.681Z,96389.41
2023-02-11T17:15:56.437Z,96395.53
2023-02-11T17:18:22.841Z,96399.75
2023-02-11T17:20:49.232Z,96402.28
2023-02-11T17:23:15.621Z,96420.34
2023-02-11T17:25:45.266Z,96416.59
2023-02-11T17:28:11.734Z,96423.44
2023-02-11T17:30:38.370Z,96419.75
2023-02-11T17:33:04.775Z,96427.94
2023-02-11T17:35:32.432Z,96430.25
2023-02-11T17:37:59.022Z,96439.44
2023-02-11T17:40:25.745Z,96434.84
2023-02-11T17:42:52.211Z,96442.38
2023-02-11T17:45:21.180Z,96447.59
2023-02-11T17:47:48.729Z,96438.78
2023-02-11T17:50:15.088Z,96442.09
2023-02-11T17:52:41.426Z,96439.25
2023-02-11T17:55:08.074Z,96440.56
2023-02-11T17:57:34.829Z,96442.03
2023-02-11T18:00:01.483Z,96450.34
2023-02-11T18:02:27.931Z,96458.72
2023-02-11T18:04:54.410Z,96449.47
2023-02-11T18:07:23.664Z,96452.31
2023-02-11T18:09:50.022Z,96446.72
2023-02-11T18:12:24.333Z,96452.34
2023-02-11T18:14:50.912Z,96440.59
2023-02-11T18:17:17.789Z,96447.16
2023-02-11T18:19:46.922Z,96450.31
2023-02-11T18:22:13.814Z,96456.13
2023-02-11T18:24:40.302Z,96446.44
2023-02-11T18:27:07.123Z,96447.56
2023-02-11T18:29:35.856Z,96449.97
2023-02-11T18:45:33.452Z,96448.78
2023-02-11T18:56:34.672Z,96470.19
2023-02-11T18:59:01.096Z,96472.31
2023-02-11T19:01:28.267Z,96471.56
2023-02-11T19:03:55.461Z,96472.41
2023-02-11T19:06:22.951Z,96476.09
2023-02-11T19:08:50.342Z,96475.41
2023-02-11T19:11:16.985Z,96475.59
2023-02-11T19:13:43.635Z,96481.81
2023-02-11T19:16:11.458Z,96478.81
2023-02-11T19:18:39.144Z,96472.84
2023-02-11T19:21:05.819Z,96477.53
2023-02-11T19:23:32.224Z,96485.34
2023-02-11T19:25:58.923Z,96486.09
2023-02-11T19:28:29.712Z,96486.19
2023-02-11T20:21:29.739Z,96514.41
2023-02-11T20:23:58.928Z,96504.16
2023-02-11T20:26:26.296Z,96511.97
2023-02-11T20:58:58.700Z,96508.03
2023-02-11T21:04:15.581Z,96505.75
2023-02-11T23:10:51.351Z,96509.06
2023-02-11T23:13:17.712Z,96512.50
2023-02-11T23:15:44.352Z,96506.38
2023-02-11T23:18:10.711Z,96506.38
2023-02-11T23:20:37.342Z,96503.84
2023-02-11T23:23:03.712Z,96509.81
2023-02-11T23:25:33.216Z,96512.25
2023-02-11T23:28:02.117Z,96520.00
2023-02-11T23:30:29.351Z,96519.84
2023-02-11T23:33:00.196Z,96517.94
2023-02-11T23:35:27.755Z,96517.34
2023-02-11T23:37:54.137Z,96511.56
2023-02-11T23:40:20.491Z,96508.34
2023-02-11T23:42:49.022Z,96514.44
2023-02-11T23:45:15.717Z,96510.97
2023-02-11T23:47:42.526Z,96513.47
2023-02-11T23:50:11.928Z,96511.66
2023-02-11T23:52:40.668Z,96512.53
2023-02-11T23:55:08.375Z,96514.44
2023-02-11T23:57:34.794Z,96516.34
